Parachute, CO (81635)

6:29 PM MDT on October 01, 2014 (GMT -0600)
Taughenbaugh Mesa | Change Station
CLOSE
Current Station
Personal Weather Station
Location: Rifle, CO
Elevation: 5650 ft
Nearby Weather Stations
Active Advisory: Freeze Warning Active Notice: Public Information Statement

Elev 5650 ft 39.50 °N, 107.85 °W | Updated 5 seconds ago

Rain
Rain
43.8 °F
Feels Like 44 °F
N
0.0
Wind Variable Wind from SSE
Gusts 0.0 mph

Today
High -- | Low -- °F
--% Chance of Precip.
Yesterday
High -- | Low -- °F
Precip. -- in
7:08 AM 6:54 PM
First Quarter, 52% visible
Pressure 30.07 in
Visibility 4.0 miles
Clouds Few 1700 ft
Overcast 2700 ft
Windchill 44 °F
Dew Point 40 °F
Humidity 87%
Rainfall 0.40 in
Snow Depth 0 in , 1 in , 0 in
UV 0 out of 12
Pollen 3.80 out of 12
Air Quality Not available.
Flu Activity Not available.
SPECI KRIL 020014Z AUTO 21003KT 4SM RA FEW017 OVC027 07/03 A3007 RMK AO2 P0007 T00670033

More Conditions Fewer Conditions

Pressure 30.07 in
Visibility 4.0 miles
Clouds Few 1700 ft
Overcast 2700 ft
Windchill 44 °F
Dew Point 40 °F
Humidity 87%
Rainfall 0.40 in
Snow Depth 0 in , 1 in , 0 in
UV 0 out of 12
Pollen 3.80 out of 12
Air Quality Not available.
Flu Activity Not available.
SPECI KRIL 020014Z AUTO 21003KT 4SM RA FEW017 OVC027 07/03 A3007 RMK AO2 P0007 T00670033

More Conditions Fewer Conditions

10-Day Weather Forecast

Almanac

Astronomy

Oct. 01, 2014 Rise Set
Actual Time 7:08 AM MDT 6:54 PM MDT
Civil Twilight 6:41 AM MDT 7:21 PM MDT
Nautical Twilight 6:10 AM MDT 7:52 PM MDT
Astronomical Twilight 5:38 AM MDT 8:23 PM MDT
Moon 2:10 PM MDT (10/1) No Moon Set
Length of Visible Light 12h 39m
Length of Day
11h 46m
Tomorrow will be 2m 34s shorter.
First Quarter, 52% of the Moon is Illuminated
Today
First Quarter
Oct 8
Full
Oct 15
Last Quarter
Oct 23
New
Oct 30
First Quarter

Today's Extremes

State Highs State Lows

Community

WunderPhotos

Upload Photos

1,758,097 photos uploaded!

WunderBlogs® & News

Nearby

Snow Depth

Station Depth Elevation
Beaver Divide 0 in 8280 ft
Rawah 1 in 9020 ft
Buffalo Park 0 in 9240 ft
El Diente Peak 0 in 10200 ft
Niwot 1 in 9910 ft

Earthquake Activity

City Distance Mag. Time & Date
No recent earthquake activity has been reported nearby.
Minimum magnitude displayed is 2.5.

Coastal Water Temperatures

Place Temperature
No Stations Reporting

Nearby Weather Stations